Terminal Aerodrome Forecast
Issued by NWS

Home | Current Version | Previous Version | Text Only | Print | Product List | Glossary On
Versions: 1 2 3 4 5 6 7 8 9 10 11 12
000
FTUS42 TJSJ 021124
TAFNCM
TAF
TNCM 021124Z 0212/0312 11008KT P6SM VCSH SCT020 SCT050
     FM021330 13010KT P6SM FEW022
     FM022100 08008KT P6SM SCT020=

USA.gov is the U.S. government's official web portal to all federal, state and local government web resources and services.